sensor_id;sensor_type;location;lat;lon;timestamp;pressure;altitude;pressure_sealevel;temperature;humidity
71043;BME280;58696;52.134;5.500;2023-05-09T00:02:12;101911.75;;;14.44;93.79
71043;BME280;58696;52.134;5.500;2023-05-09T00:04:39;101903.56;;;14.40;93.43
71043;BME280;58696;52.134;5.500;2023-05-09T00:07:06;101903.94;;;14.37;94.14
71043;BME280;58696;52.134;5.500;2023-05-09T00:09:37;101906.84;;;14.34;93.71
71043;BME280;58696;52.134;5.500;2023-05-09T00:12:04;101892.97;;;14.35;93.91
71043;BME280;58696;52.134;5.500;2023-05-09T00:14:35;101887.59;;;14.37;94.06
71043;BME280;58696;52.134;5.500;2023-05-09T00:17:02;101894.56;;;14.36;93.72
71043;BME280;58696;52.134;5.500;2023-05-09T00:19:31;101897.31;;;14.35;93.84
71043;BME280;58696;52.134;5.500;2023-05-09T00:22:00;101896.25;;;14.29;93.80
71043;BME280;58696;52.134;5.500;2023-05-09T00:24:27;101887.63;;;14.22;94.15
71043;BME280;58696;52.134;5.500;2023-05-09T00:26:54;101887.63;;;14.22;94.16
71043;BME280;58696;52.134;5.500;2023-05-09T00:29:21;101879.88;;;14.22;94.18
71043;BME280;58696;52.134;5.500;2023-05-09T00:31:49;101878.88;;;14.23;93.94
71043;BME280;58696;52.134;5.500;2023-05-09T00:34:16;101883.06;;;14.24;93.98
71043;BME280;58696;52.134;5.500;2023-05-09T00:36:43;101886.28;;;14.26;94.03
71043;BME280;58696;52.134;5.500;2023-05-09T00:39:09;101880.13;;;14.27;93.86
71043;BME280;58696;52.134;5.500;2023-05-09T00:41:36;101875.94;;;14.26;93.72
71043;BME280;58696;52.134;5.500;2023-05-09T00:44:02;101880.31;;;14.26;93.79
71043;BME280;58696;52.134;5.500;2023-05-09T00:46:34;101875.50;;;14.23;93.85
71043;BME280;58696;52.134;5.500;2023-05-09T00:49:01;101870.13;;;14.24;93.91
71043;BME280;58696;52.134;5.500;2023-05-09T00:51:28;101869.97;;;14.26;93.84
71043;BME280;58696;52.134;5.500;2023-05-09T00:53:57;101866.13;;;14.21;93.80
71043;BME280;58696;52.134;5.500;2023-05-09T00:56:27;101864.88;;;14.17;93.97
71043;BME280;58696;52.134;5.500;2023-05-09T00:58:57;101874.44;;;14.17;94.01
71043;BME280;58696;52.134;5.500;2023-05-09T01:01:23;101866.47;;;14.18;93.99
71043;BME280;58696;52.134;5.500;2023-05-09T01:03:53;101862.94;;;14.19;94.29
71043;BME280;58696;52.134;5.500;2023-05-09T01:06:36;101864.88;;;14.17;94.31
71043;BME280;58696;52.134;5.500;2023-05-09T01:09:18;101859.09;;;14.15;94.39
71043;BME280;58696;52.134;5.500;2023-05-09T01:12:38;101855.34;;;14.18;94.38
71043;BME280;58696;52.134;5.500;2023-05-09T01:20:05;101848.75;;;14.15;93.91
71043;BME280;58696;52.134;5.500;2023-05-09T01:22:44;101840.22;;;14.15;94.12
71043;BME280;58696;52.134;5.500;2023-05-09T01:30:20;101826.84;;;14.11;94.13
71043;BME280;58696;52.134;5.500;2023-05-09T01:32:50;101827.03;;;14.10;94.37
71043;BME280;58696;52.134;5.500;2023-05-09T01:35:23;101820.88;;;14.11;94.47
71043;BME280;58696;52.134;5.500;2023-05-09T01:37:53;101819.06;;;14.11;94.45
71043;BME280;58696;52.134;5.500;2023-05-09T01:40:20;101812.31;;;14.10;94.51
71043;BME280;58696;52.134;5.500;2023-05-09T01:45:30;101820.97;;;14.03;94.59
71043;BME280;58696;52.134;5.500;2023-05-09T01:48:00;101818.75;;;14.00;94.57
71043;BME280;58696;52.134;5.500;2023-05-09T01:50:31;101815.72;;;13.96;94.67
71043;BME280;58696;52.134;5.500;2023-05-09T01:53:04;101809.94;;;13.94;95.11
71043;BME280;58696;52.134;5.500;2023-05-09T01:55:33;101804.94;;;13.92;94.87
71043;BME280;58696;52.134;5.500;2023-05-09T01:58:04;101804.94;;;13.92;95.09
71043;BME280;58696;52.134;5.500;2023-05-09T02:00:33;101798.97;;;13.92;95.13
71043;BME280;58696;52.134;5.500;2023-05-09T02:03:01;101796.41;;;13.92;95.37
71043;BME280;58696;52.134;5.500;2023-05-09T02:05:29;101802.72;;;13.89;95.20
71043;BME280;58696;52.134;5.500;2023-05-09T02:08:00;101797.91;;;13.86;95.09
71043;BME280;58696;52.134;5.500;2023-05-09T02:10:27;101798.25;;;13.83;95.08
71043;BME280;58696;52.134;5.500;2023-05-09T02:12:54;101798.88;;;13.85;95.33
71043;BME280;58696;52.134;5.500;2023-05-09T02:15:23;101796.28;;;13.85;95.27
71043;BME280;58696;52.134;5.500;2023-05-09T02:17:50;101782.56;;;13.85;95.39
71043;BME280;58696;52.134;5.500;2023-05-09T02:20:19;101792.91;;;13.85;95.52
71043;BME280;58696;52.134;5.500;2023-05-09T02:22:46;101783.75;;;13.82;95.44
71043;BME280;58696;52.134;5.500;2023-05-09T02:25:13;101782.94;;;13.82;95.57
71043;BME280;58696;52.134;5.500;2023-05-09T02:27:45;101783.09;;;13.80;95.63
71043;BME280;58696;52.134;5.500;2023-05-09T02:30:18;101780.09;;;13.77;95.54
71043;BME280;58696;52.134;5.500;2023-05-09T02:32:50;101770.91;;;13.74;95.56
71043;BME280;58696;52.134;5.500;2023-05-09T02:35:17;101769.31;;;13.73;95.55
71043;BME280;58696;52.134;5.500;2023-05-09T02:37:44;101771.28;;;13.71;95.85
71043;BME280;58696;52.134;5.500;2023-05-09T02:40:12;101758.91;;;13.66;95.58
71043;BME280;58696;52.134;5.500;2023-05-09T02:42:42;101772.00;;;13.65;95.64
71043;BME280;58696;52.134;5.500;2023-05-09T02:45:11;101770.56;;;13.62;95.76
71043;BME280;58696;52.134;5.500;2023-05-09T02:47:38;101779.31;;;13.61;96.12
71043;BME280;58696;52.134;5.500;2023-05-09T02:50:05;101765.59;;;13.61;95.88
71043;BME280;58696;52.134;5.500;2023-05-09T02:52:34;101771.56;;;13.61;96.04
71043;BME280;58696;52.134;5.500;2023-05-09T02:55:02;101769.16;;;13.60;96.09
71043;BME280;58696;52.134;5.500;2023-05-09T02:57:28;101768.34;;;13.59;95.99
71043;BME280;58696;52.134;5.500;2023-05-09T02:59:57;101764.00;;;13.60;95.92
71043;BME280;58696;52.134;5.500;2023-05-09T03:02:26;101760.94;;;13.56;95.97
71043;BME280;58696;52.134;5.500;2023-05-09T03:04:53;101759.53;;;13.54;96.05
71043;BME280;58696;52.134;5.500;2023-05-09T03:07:21;101760.88;;;13.50;96.06
71043;BME280;58696;52.134;5.500;2023-05-09T03:09:50;101760.78;;;13.43;96.09
71043;BME280;58696;52.134;5.500;2023-05-09T03:12:17;101751.41;;;13.42;96.28
71043;BME280;58696;52.134;5.500;2023-05-09T03:14:43;101752.06;;;13.44;96.26
71043;BME280;58696;52.134;5.500;2023-05-09T03:17:12;101744.47;;;13.42;96.47
71043;BME280;58696;52.134;5.500;2023-05-09T03:19:42;101742.72;;;13.43;96.46
71043;BME280;58696;52.134;5.500;2023-05-09T03:22:11;101742.53;;;13.45;96.54
71043;BME280;58696;52.134;5.500;2023-05-09T03:24:40;101739.56;;;13.48;96.64
71043;BME280;58696;52.134;5.500;2023-05-09T03:27:09;101741.81;;;13.51;96.85
71043;BME280;58696;52.134;5.500;2023-05-09T03:29:35;101739.22;;;13.51;96.80
71043;BME280;58696;52.134;5.500;2023-05-09T03:32:06;101729.69;;;13.51;97.02
71043;BME280;58696;52.134;5.500;2023-05-09T03:34:33;101725.31;;;13.52;96.94
71043;BME280;58696;52.134;5.500;2023-05-09T03:36:59;101719.03;;;13.54;97.13
71043;BME280;58696;52.134;5.500;2023-05-09T03:39:26;101719.63;;;13.56;97.03
71043;BME280;58696;52.134;5.500;2023-05-09T03:41:52;101709.28;;;13.56;97.06
71043;BME280;58696;52.134;5.500;2023-05-09T03:44:24;101703.94;;;13.58;97.02
71043;BME280;58696;52.134;5.500;2023-05-09T03:46:52;101700.75;;;13.56;97.04
71043;BME280;58696;52.134;5.500;2023-05-09T03:49:19;101687.84;;;13.56;96.92
71043;BME280;58696;52.134;5.500;2023-05-09T03:51:50;101698.78;;;13.58;97.05
71043;BME280;58696;52.134;5.500;2023-05-09T03:54:19;101685.88;;;13.58;96.97
71043;BME280;58696;52.134;5.500;2023-05-09T03:56:48;101684.72;;;13.60;96.99
71043;BME280;58696;52.134;5.500;2023-05-09T03:59:14;101677.78;;;13.61;96.73
71043;BME280;58696;52.134;5.500;2023-05-09T04:01:41;101681.94;;;13.62;96.76
71043;BME280;58696;52.134;5.500;2023-05-09T04:04:08;101680.34;;;13.61;96.80
71043;BME280;58696;52.134;5.500;2023-05-09T04:06:39;101683.28;;;13.58;96.84
71043;BME280;58696;52.134;5.500;2023-05-09T04:09:08;101686.66;;;13.58;96.75
71043;BME280;58696;52.134;5.500;2023-05-09T04:11:35;101676.72;;;13.55;96.57
71043;BME280;58696;52.134;5.500;2023-05-09T04:14:04;101680.63;;;13.51;96.58
71043;BME280;58696;52.134;5.500;2023-05-09T04:16:32;101676.63;;;13.49;96.57
71043;BME280;58696;52.134;5.500;2023-05-09T04:19:01;101677.25;;;13.51;96.64
71043;BME280;58696;52.134;5.500;2023-05-09T04:21:30;101671.75;;;13.54;96.59
71043;BME280;58696;52.134;5.500;2023-05-09T04:23:59;101668.97;;;13.55;96.39
71043;BME280;58696;52.134;5.500;2023-05-09T04:26:25;101673.94;;;13.57;96.40
71043;BME280;58696;52.134;5.500;2023-05-09T04:28:52;101674.94;;;13.56;96.18
71043;BME280;58696;52.134;5.500;2023-05-09T04:31:19;101672.34;;;13.56;95.94
71043;BME280;58696;52.134;5.500;2023-05-09T04:33:48;101676.72;;;13.55;95.91
71043;BME280;58696;52.134;5.500;2023-05-09T04:36:14;101679.09;;;13.57;95.86
71043;BME280;58696;52.134;5.500;2023-05-09T04:38:41;101679.28;;;13.55;95.78
71043;BME280;58696;52.134;5.500;2023-05-09T04:41:07;101671.75;;;13.54;95.76
71043;BME280;58696;52.134;5.500;2023-05-09T04:43:36;101669.75;;;13.56;95.93
71043;BME280;58696;52.134;5.500;2023-05-09T04:46:03;101674.72;;;13.57;95.92
71043;BME280;58696;52.134;5.500;2023-05-09T04:48:31;101665.84;;;13.60;95.76
71043;BME280;58696;52.134;5.500;2023-05-09T04:50:58;101661.63;;;13.59;95.64
71043;BME280;58696;52.134;5.500;2023-05-09T04:53:24;101655.50;;;13.60;95.60
71043;BME280;58696;52.134;5.500;2023-05-09T04:55:52;101664.66;;;13.62;95.55
71043;BME280;58696;52.134;5.500;2023-05-09T04:58:18;101657.72;;;13.63;95.32
71043;BME280;58696;52.134;5.500;2023-05-09T05:00:45;101651.22;;;13.67;95.13
71043;BME280;58696;52.134;5.500;2023-05-09T05:03:12;101643.91;;;13.71;95.05
71043;BME280;58696;52.134;5.500;2023-05-09T05:05:43;101637.75;;;13.72;94.96
71043;BME280;58696;52.134;5.500;2023-05-09T05:08:10;101649.50;;;13.74;94.75
71043;BME280;58696;52.134;5.500;2023-05-09T05:10:38;101644.78;;;13.78;94.86
71043;BME280;58696;52.134;5.500;2023-05-09T05:13:10;101643.59;;;13.80;94.72
71043;BME280;58696;52.134;5.500;2023-05-09T05:15:36;101644.63;;;13.86;94.72
71043;BME280;58696;52.134;5.500;2023-05-09T05:18:05;101632.16;;;13.89;94.68
71043;BME280;58696;52.134;5.500;2023-05-09T05:20:32;101631.63;;;13.94;94.55
71043;BME280;58696;52.134;5.500;2023-05-09T05:22:59;101630.69;;;14.02;94.09
71043;BME280;58696;52.134;5.500;2023-05-09T05:25:27;101625.75;;;14.07;93.96
71043;BME280;58696;52.134;5.500;2023-05-09T05:27:54;101621.63;;;14.12;93.84
71043;BME280;58696;52.134;5.500;2023-05-09T05:30:25;101614.31;;;14.16;93.65
71043;BME280;58696;52.134;5.500;2023-05-09T05:32:52;101614.91;;;14.18;93.60
71043;BME280;58696;52.134;5.500;2023-05-09T05:35:21;101608.59;;;14.20;93.60
71043;BME280;58696;52.134;5.500;2023-05-09T05:37:48;101605.63;;;14.24;93.51
71043;BME280;58696;52.134;5.500;2023-05-09T05:40:17;101607.66;;;14.28;93.51
71043;BME280;58696;52.134;5.500;2023-05-09T05:42:44;101604.88;;;14.30;93.29
71043;BME280;58696;52.134;5.500;2023-05-09T05:45:13;101598.53;;;14.32;92.95
71043;BME280;58696;52.134;5.500;2023-05-09T05:47:42;101596.19;;;14.37;93.01
71043;BME280;58696;52.134;5.500;2023-05-09T05:50:12;101592.84;;;14.43;92.79
71043;BME280;58696;52.134;5.500;2023-05-09T05:52:41;101593.72;;;14.51;92.60
71043;BME280;58696;52.134;5.500;2023-05-09T05:55:10;101588.59;;;14.57;92.03
71043;BME280;58696;52.134;5.500;2023-05-09T05:57:41;101581.66;;;14.64;91.72
71043;BME280;58696;52.134;5.500;2023-05-09T06:00:08;101581.50;;;14.72;91.59
71043;BME280;58696;52.134;5.500;2023-05-09T06:02:41;101572.97;;;14.79;91.21
71043;BME280;58696;52.134;5.500;2023-05-09T06:05:09;101569.03;;;14.89;90.95
71043;BME280;58696;52.134;5.500;2023-05-09T06:07:36;101570.47;;;14.92;90.09
71043;BME280;58696;52.134;5.500;2023-05-09T06:10:03;101577.66;;;14.96;89.69
71043;BME280;58696;52.134;5.500;2023-05-09T06:12:30;101573.28;;;14.97;89.76
71043;BME280;58696;52.134;5.500;2023-05-09T06:14:59;101571.28;;;14.99;89.78
71043;BME280;58696;52.134;5.500;2023-05-09T06:17:25;101573.88;;;14.99;89.52
71043;BME280;58696;52.134;5.500;2023-05-09T06:19:54;101569.09;;;14.96;89.36
71043;BME280;58696;52.134;5.500;2023-05-09T06:22:21;101563.91;;;14.96;89.37
71043;BME280;58696;52.134;5.500;2023-05-09T06:24:47;101566.69;;;14.94;89.32
71043;BME280;58696;52.134;5.500;2023-05-09T06:27:16;101561.34;;;14.96;89.40
71043;BME280;58696;52.134;5.500;2023-05-09T06:29:43;101555.16;;;14.97;89.41
71043;BME280;58696;52.134;5.500;2023-05-09T06:32:14;101555.94;;;14.97;89.33
71043;BME280;58696;52.134;5.500;2023-05-09T06:34:43;101559.34;;;14.98;89.42
71043;BME280;58696;52.134;5.500;2023-05-09T06:37:13;101553.38;;;14.97;89.59
71043;BME280;58696;52.134;5.500;2023-05-09T06:39:42;101543.22;;;14.96;88.96
71043;BME280;58696;52.134;5.500;2023-05-09T06:42:08;101535.03;;;14.92;88.98
71043;BME280;58696;52.134;5.500;2023-05-09T06:44:37;101539.78;;;14.89;88.94
71043;BME280;58696;52.134;5.500;2023-05-09T06:47:04;101532.00;;;14.82;88.96
71043;BME280;58696;52.134;5.500;2023-05-09T06:49:30;101528.97;;;14.79;88.93
71043;BME280;58696;52.134;5.500;2023-05-09T06:51:57;101524.63;;;14.79;89.02
71043;BME280;58696;52.134;5.500;2023-05-09T06:54:28;101522.63;;;14.81;88.99
71043;BME280;58696;52.134;5.500;2023-05-09T06:56:55;101517.69;;;14.86;88.74
71043;BME280;58696;52.134;5.500;2023-05-09T06:59:23;101513.91;;;14.89;89.10
71043;BME280;58696;52.134;5.500;2023-05-09T07:01:52;101522.09;;;14.92;89.31
71043;BME280;58696;52.134;5.500;2023-05-09T07:04:19;101511.94;;;14.97;89.34
71043;BME280;58696;52.134;5.500;2023-05-09T07:06:46;101517.13;;;14.97;89.12
71043;BME280;58696;52.134;5.500;2023-05-09T07:09:17;101511.56;;;15.01;89.08
71043;BME280;58696;52.134;5.500;2023-05-09T07:11:45;101511.56;;;15.01;89.19
71043;BME280;58696;52.134;5.500;2023-05-09T07:14:12;101510.94;;;14.98;89.13
71043;BME280;58696;52.134;5.500;2023-05-09T07:16:39;101507.78;;;14.96;88.89
71043;BME280;58696;52.134;5.500;2023-05-09T07:19:05;101504.19;;;14.97;89.31
71043;BME280;58696;52.134;5.500;2023-05-09T07:21:32;101495.41;;;14.98;89.32
71043;BME280;58696;52.134;5.500;2023-05-09T07:24:01;101501.81;;;14.96;89.17
71043;BME280;58696;52.134;5.500;2023-05-09T07:26:34;101500.59;;;14.98;89.30
71043;BME280;58696;52.134;5.500;2023-05-09T07:29:01;101499.44;;;15.01;89.47
71043;BME280;58696;52.134;5.500;2023-05-09T07:31:27;101499.81;;;15.05;89.91
71043;BME280;58696;52.134;5.500;2023-05-09T07:33:59;101502.03;;;15.08;89.84
71043;BME280;58696;52.134;5.500;2023-05-09T07:36:28;101498.66;;;15.07;89.64
71043;BME280;58696;52.134;5.500;2023-05-09T07:38:56;101505.41;;;15.08;89.81
71043;BME280;58696;52.134;5.500;2023-05-09T07:41:25;101491.88;;;15.06;89.87
71043;BME280;58696;52.134;5.500;2023-05-09T07:43:54;101493.84;;;15.04;90.24
71043;BME280;58696;52.134;5.500;2023-05-09T07:46:23;101493.25;;;15.02;90.68
71043;BME280;58696;52.134;5.500;2023-05-09T07:48:49;101489.06;;;15.01;90.86
71043;BME280;58696;52.134;5.500;2023-05-09T07:51:16;101493.63;;;14.99;91.45
71043;BME280;58696;52.134;5.500;2023-05-09T07:53:42;101483.69;;;14.96;91.48
71043;BME280;58696;52.134;5.500;2023-05-09T07:56:14;101481.25;;;14.94;91.23
71043;BME280;58696;52.134;5.500;2023-05-09T07:58:43;101478.69;;;14.94;91.06
71043;BME280;58696;52.134;5.500;2023-05-09T08:01:09;101472.53;;;14.95;91.76
71043;BME280;58696;52.134;5.500;2023-05-09T08:03:38;101473.13;;;14.97;91.69
71043;BME280;58696;52.134;5.500;2023-05-09T08:06:09;101471.91;;;15.00;91.83
71043;BME280;58696;52.134;5.500;2023-05-09T08:08:36;101465.56;;;14.96;92.08
71043;BME280;58696;52.134;5.500;2023-05-09T08:11:06;101463.94;;;14.95;92.15
71043;BME280;58696;52.134;5.500;2023-05-09T08:13:35;101458.19;;;14.93;92.37
71043;BME280;58696;52.134;5.500;2023-05-09T08:16:04;101462.34;;;14.94;92.78
71043;BME280;58696;52.134;5.500;2023-05-09T08:18:31;101454.41;;;14.95;92.89
71043;BME280;58696;52.134;5.500;2023-05-09T08:20:57;101449.41;;;14.94;92.62
71043;BME280;58696;52.134;5.500;2023-05-09T08:23:25;101448.63;;;14.93;93.38
71043;BME280;58696;52.134;5.500;2023-05-09T08:25:58;101436.69;;;14.99;92.56
71043;BME280;58696;52.134;5.500;2023-05-09T08:28:27;101441.28;;;15.04;92.92
71043;BME280;58696;52.134;5.500;2023-05-09T08:30:56;101437.50;;;15.06;92.91
71043;BME280;58696;52.134;5.500;2023-05-09T08:33:23;101429.75;;;15.13;92.71
71043;BME280;58696;52.134;5.500;2023-05-09T08:35:55;101436.91;;;15.11;92.69
71043;BME280;58696;52.134;5.500;2023-05-09T08:38:22;101441.06;;;15.05;92.80
71043;BME280;58696;52.134;5.500;2023-05-09T08:40:49;101431.72;;;14.97;92.89
71043;BME280;58696;52.134;5.500;2023-05-09T08:43:16;101435.09;;;14.91;93.59
71043;BME280;58696;52.134;5.500;2023-05-09T08:45:50;101430.50;;;14.87;93.80
71043;BME280;58696;52.134;5.500;2023-05-09T08:48:17;101427.09;;;14.80;94.14
71043;BME280;58696;52.134;5.500;2023-05-09T08:50:44;101423.94;;;14.84;94.38
71043;BME280;58696;52.134;5.500;2023-05-09T08:53:13;101424.72;;;14.91;94.42
71043;BME280;58696;52.134;5.500;2023-05-09T08:55:40;101423.31;;;14.89;94.17
71043;BME280;58696;52.134;5.500;2023-05-09T08:58:12;101420.94;;;14.81;94.14
71043;BME280;58696;52.134;5.500;2023-05-09T09:00:47;101417.34;;;14.82;94.43
71043;BME280;58696;52.134;5.500;2023-05-09T09:03:14;101417.72;;;14.79;94.10
71043;BME280;58696;52.134;5.500;2023-05-09T09:05:41;101422.50;;;14.82;94.22
71043;BME280;58696;52.134;5.500;2023-05-09T09:08:13;101415.75;;;14.81;93.85
71043;BME280;58696;52.134;5.500;2023-05-09T09:10:45;101409.38;;;14.83;94.24
71043;BME280;58696;52.134;5.500;2023-05-09T09:13:14;101406.41;;;14.93;94.29
71043;BME280;58696;52.134;5.500;2023-05-09T09:15:45;101407.63;;;15.04;93.97
71043;BME280;58696;52.134;5.500;2023-05-09T09:18:19;101398.28;;;15.09;94.37
71043;BME280;58696;52.134;5.500;2023-05-09T09:20:59;101399.28;;;15.15;94.18
71043;BME280;58696;52.134;5.500;2023-05-09T09:23:31;101401.47;;;15.24;93.46
71043;BME280;58696;52.134;5.500;2023-05-09T09:26:00;101398.69;;;15.26;93.26
71043;BME280;58696;52.134;5.500;2023-05-09T09:28:30;101394.28;;;15.26;93.63
71043;BME280;58696;52.134;5.500;2023-05-09T09:30:56;101391.91;;;15.32;93.24
71043;BME280;58696;52.134;5.500;2023-05-09T09:33:27;101389.13;;;15.33;93.81
71043;BME280;58696;52.134;5.500;2023-05-09T09:35:56;101390.31;;;15.37;93.84
71043;BME280;58696;52.134;5.500;2023-05-09T09:38:25;101387.94;;;15.29;92.78
71043;BME280;58696;52.134;5.500;2023-05-09T09:40:59;101389.91;;;15.27;93.42
71043;BME280;58696;52.134;5.500;2023-05-09T09:43:30;101386.94;;;15.30;93.81
71043;BME280;58696;52.134;5.500;2023-05-09T09:46:03;101387.72;;;15.37;93.75
71043;BME280;58696;52.134;5.500;2023-05-09T09:48:31;101385.53;;;15.34;93.32
71043;BME280;58696;52.134;5.500;2023-05-09T09:51:09;101384.75;;;15.34;93.08
71043;BME280;58696;52.134;5.500;2023-05-09T09:53:43;101375.38;;;15.19;92.58
71043;BME280;58696;52.134;5.500;2023-05-09T09:56:15;101377.97;;;15.13;93.58
71043;BME280;58696;52.134;5.500;2023-05-09T09:58:41;101381.75;;;15.23;93.46
71043;BME280;58696;52.134;5.500;2023-05-09T10:01:11;101377.97;;;15.19;93.57
71043;BME280;58696;52.134;5.500;2023-05-09T10:03:48;101378.19;;;15.18;93.53
71043;BME280;58696;52.134;5.500;2023-05-09T10:06:17;101371.19;;;15.18;93.73
71043;BME280;58696;52.134;5.500;2023-05-09T10:08:44;101369.41;;;15.19;93.87
71043;BME280;58696;52.134;5.500;2023-05-09T10:11:14;101370.59;;;15.10;93.80
71043;BME280;58696;52.134;5.500;2023-05-09T10:13:42;101372.19;;;15.04;94.02
71043;BME280;58696;52.134;5.500;2023-05-09T10:16:10;101369.19;;;14.94;94.35
71043;BME280;58696;52.134;5.500;2023-05-09T10:18:36;101367.97;;;14.83;94.16
71043;BME280;58696;52.134;5.500;2023-05-09T10:21:10;101375.13;;;14.81;94.47
71043;BME280;58696;52.134;5.500;2023-05-09T10:23:41;101363.19;;;14.80;95.04
71043;BME280;58696;52.134;5.500;2023-05-09T10:26:25;101366.75;;;14.72;94.85
71043;BME280;58696;52.134;5.500;2023-05-09T10:28:54;101365.75;;;14.67;95.06
71043;BME280;58696;52.134;5.500;2023-05-09T10:31:27;101358.41;;;14.70;95.51
71043;BME280;58696;52.134;5.500;2023-05-09T10:33:56;101359.00;;;14.72;95.78
71043;BME280;58696;52.134;5.500;2023-05-09T10:36:29;101349.44;;;14.66;95.68
71043;BME280;58696;52.134;5.500;2023-05-09T10:38:56;101351.22;;;14.66;95.58
71043;BME280;58696;52.134;5.500;2023-05-09T10:41:25;101354.22;;;14.63;95.48
71043;BME280;58696;52.134;5.500;2023-05-09T10:43:57;101351.41;;;14.58;95.52
71043;BME280;58696;52.134;5.500;2023-05-09T10:46:25;101337.69;;;14.57;95.93
71043;BME280;58696;52.134;5.500;2023-05-09T10:48:53;101332.31;;;14.59;95.88
71043;BME280;58696;52.134;5.500;2023-05-09T10:51:23;101335.47;;;14.54;95.75
71043;BME280;58696;52.134;5.500;2023-05-09T10:53:52;101334.69;;;14.54;95.99
71043;BME280;58696;52.134;5.500;2023-05-09T10:56:31;101330.09;;;14.56;95.90
71043;BME280;58696;52.134;5.500;2023-05-09T10:58:59;101324.75;;;14.57;96.02
71043;BME280;58696;52.134;5.500;2023-05-09T11:01:38;101321.38;;;14.63;96.44
71043;BME280;58696;52.134;5.500;2023-05-09T11:04:15;101325.13;;;14.61;95.94
71043;BME280;58696;52.134;5.500;2023-05-09T11:06:51;101319.97;;;14.61;95.71
71043;BME280;58696;52.134;5.500;2023-05-09T11:14:44;101311.63;;;14.52;96.35
71043;BME280;58696;52.134;5.500;2023-05-09T11:17:26;101311.78;;;14.51;96.26
71043;BME280;58696;52.134;5.500;2023-05-09T11:19:59;101307.03;;;14.48;96.63
71043;BME280;58696;52.134;5.500;2023-05-09T11:22:30;101302.78;;;14.40;96.56
71043;BME280;58696;52.134;5.500;2023-05-09T11:25:02;101302.97;;;14.38;96.65
71043;BME280;58696;52.134;5.500;2023-05-09T11:30:10;101287.06;;;14.35;96.56
71043;BME280;58696;52.134;5.500;2023-05-09T11:40:27;101276.00;;;14.48;97.16
71043;BME280;58696;52.134;5.500;2023-05-09T11:42:57;101270.03;;;14.47;96.89
71043;BME280;58696;52.134;5.500;2023-05-09T11:45:26;101272.75;;;14.45;96.82
71043;BME280;58696;52.134;5.500;2023-05-09T11:47:55;101263.19;;;14.46;96.56
71043;BME280;58696;52.134;5.500;2023-05-09T11:50:25;101260.81;;;14.38;96.56
71043;BME280;58696;52.134;5.500;2023-05-09T11:52:52;101266.78;;;14.38;96.92
71043;BME280;58696;52.134;5.500;2023-05-09T11:55:20;101258.03;;;14.39;96.98
71043;BME280;58696;52.134;5.500;2023-05-09T11:57:52;101261.63;;;14.45;97.53
71043;BME280;58696;52.134;5.500;2023-05-09T12:00:21;101265.59;;;14.41;97.05
71043;BME280;58696;52.134;5.500;2023-05-09T12:02:48;101253.06;;;14.44;97.31
71043;BME280;58696;52.134;5.500;2023-05-09T12:05:19;101254.84;;;14.44;97.28
71043;BME280;58696;52.134;5.500;2023-05-09T12:07:48;101251.72;;;14.49;97.37
71043;BME280;58696;52.134;5.500;2023-05-09T12:10:18;101243.94;;;14.49;97.31
71043;BME280;58696;52.134;5.500;2023-05-09T12:12:49;101244.94;;;14.48;97.16
71043;BME280;58696;52.134;5.500;2023-05-09T12:15:18;101242.94;;;14.56;97.35
71043;BME280;58696;52.134;5.500;2023-05-09T12:18:02;101251.50;;;14.57;97.26
71043;BME280;58696;52.134;5.500;2023-05-09T12:20:44;101239.00;;;14.54;97.19
71043;BME280;58696;52.134;5.500;2023-05-09T12:23:14;101242.16;;;14.56;97.28
71043;BME280;58696;52.134;5.500;2023-05-09T12:25:54;101241.78;;;14.59;97.57
71043;BME280;58696;52.134;5.500;2023-05-09T12:28:25;101240.78;;;14.66;97.44
71043;BME280;58696;52.134;5.500;2023-05-09T12:30:56;101233.81;;;14.67;97.58
71043;BME280;58696;52.134;5.500;2023-05-09T12:33:26;101229.22;;;14.62;97.53
71043;BME280;58696;52.134;5.500;2023-05-09T12:36:08;101232.03;;;14.61;97.40
71043;BME280;58696;52.134;5.500;2023-05-09T12:38:36;101223.47;;;14.60;97.60
71043;BME280;58696;52.134;5.500;2023-05-09T12:41:09;101227.84;;;14.66;97.51
71043;BME280;58696;52.134;5.500;2023-05-09T12:43:55;101222.50;;;14.68;97.76
71043;BME280;58696;52.134;5.500;2023-05-09T12:46:24;101215.50;;;14.75;97.55
71043;BME280;58696;52.134;5.500;2023-05-09T12:48:56;101216.50;;;14.87;97.76
71043;BME280;58696;52.134;5.500;2023-05-09T12:51:22;101213.50;;;14.97;97.48
71043;BME280;58696;52.134;5.500;2023-05-09T12:53:54;101208.50;;;15.02;97.55
71043;BME280;58696;52.134;5.500;2023-05-09T12:56:20;101207.31;;;15.05;97.65
71043;BME280;58696;52.134;5.500;2023-05-09T12:58:58;101202.34;;;15.03;97.51
71043;BME280;58696;52.134;5.500;2023-05-09T13:01:28;101205.72;;;15.04;97.21
71043;BME280;58696;52.134;5.500;2023-05-09T13:04:05;101201.34;;;15.04;97.75
71043;BME280;58696;52.134;5.500;2023-05-09T13:06:46;101194.34;;;15.11;97.52
71043;BME280;58696;52.134;5.500;2023-05-09T13:09:16;101200.34;;;15.05;97.01
71043;BME280;58696;52.134;5.500;2023-05-09T13:11:44;101189.97;;;15.05;97.30
71043;BME280;58696;52.134;5.500;2023-05-09T13:14:14;101189.59;;;15.08;96.87
71043;BME280;58696;52.134;5.500;2023-05-09T13:16:43;101185.19;;;15.09;97.03
71043;BME280;58696;52.134;5.500;2023-05-09T13:19:10;101188.59;;;15.03;96.68
71043;BME280;58696;52.134;5.500;2023-05-09T13:21:36;101185.59;;;15.06;97.09
71043;BME280;58696;52.134;5.500;2023-05-09T13:24:06;101170.06;;;15.06;97.03
71043;BME280;58696;52.134;5.500;2023-05-09T13:26:32;101175.03;;;15.14;97.36
71043;BME280;58696;52.134;5.500;2023-05-09T13:29:01;101164.06;;;15.18;97.40
71043;BME280;58696;52.134;5.500;2023-05-09T13:31:28;101165.66;;;15.19;97.43